Time;durP1;ratioP1;P1;durP2;ratioP2;P2;SDS_P1;SDS_P2;PMS_P1;PMS_P2;Temp;Humidity;BMP_temperature;BMP_pressure;BME280_temperature;BME280_humidity;BME280_pressure;Samples;Min_cycle;Max_cycle;Signal;HPM_P1;HPM_P2
2021/12/14 00:00:43;;;;;;;15.18;11.30;;;8.40;99.90;;;;;;5025256;28;20039;-80
2021/12/14 00:03:12;;;;;;;17.15;11.55;;;8.40;99.90;;;;;;5008229;28;20091;-79
2021/12/14 00:05:39;;;;;;;15.30;10.95;;;8.40;99.90;;;;;;5028827;28;20068;-80
2021/12/14 00:08:06;;;;;;;14.35;10.52;;;8.40;99.90;;;;;;5032944;28;20044;-81
2021/12/14 00:13:18;;;;;;;14.48;11.13;;;8.40;99.90;;;;;;5031315;28;20076;-80
2021/12/14 00:15:44;;;;;;;19.05;12.05;;;8.40;99.90;;;;;;5031727;28;20306;-80
2021/12/14 00:18:13;;;;;;;16.58;11.88;;;8.50;99.90;;;;;;5014020;28;20037;-80
2021/12/14 00:21:12;;;;;;;16.15;11.45;;;8.40;99.90;;;;;;5029999;28;20044;-80
2021/12/14 00:26:23;;;;;;;17.35;11.52;;;8.40;99.90;;;;;;5067113;28;20051;-80
2021/12/14 00:28:50;;;;;;;11.73;9.35;;;8.40;99.90;;;;;;5047090;28;20460;-80
2021/12/14 00:31:19;;;;;;;17.48;11.40;;;8.40;99.90;;;;;;5050073;28;20087;-81
2021/12/14 00:33:53;;;;;;;17.27;10.65;;;8.60;99.90;;;;;;5013774;28;20036;-80
2021/12/14 00:36:21;;;;;;;13.70;10.77;;;8.30;99.90;;;;;;5031156;28;20041;-80
2021/12/14 00:38:54;;;;;;;17.90;11.02;;;8.30;99.90;;;;;;4997930;28;20485;-80
2021/12/14 00:41:23;;;;;;;17.48;12.48;;;8.30;99.90;;;;;;5011492;28;20037;-80
2021/12/14 00:43:49;;;;;;;14.35;10.50;;;8.60;99.90;;;;;;5043800;28;20033;-81
2021/12/14 00:46:17;;;;;;;15.10;11.13;;;8.30;99.90;;;;;;5041407;28;20086;-80
2021/12/14 00:48:44;;;;;;;23.15;14.15;;;8.40;99.90;;;;;;5065138;28;20040;-80
2021/12/14 00:51:11;;;;;;;18.00;11.13;;;8.30;99.90;;;;;;5056728;28;20120;-80
2021/12/14 00:53:38;;;;;;;15.27;10.48;;;8.50;99.90;;;;;;5062985;28;20041;-80
2021/12/14 00:56:07;;;;;;;14.88;11.15;;;8.30;99.90;;;;;;5039415;28;20045;-80
2021/12/14 00:58:34;;;;;;;17.90;11.60;;;8.30;99.90;;;;;;5039740;28;20089;-81
2021/12/14 01:01:08;;;;;;;18.70;11.43;;;8.30;99.90;;;;;;5013937;28;20596;-80
2021/12/14 01:03:37;;;;;;;14.43;10.95;;;8.30;99.90;;;;;;5045744;28;20041;-80
2021/12/14 01:06:07;;;;;;;17.63;10.93;;;8.20;99.90;;;;;;5033510;28;20043;-80
2021/12/14 01:08:37;;;;;;;30.23;17.80;;;9.20;99.90;;;;;;5071659;28;20032;-81
2021/12/14 01:11:18;;;;;;;16.97;11.60;;;8.30;99.90;;;;;;5064860;28;20123;-80
2021/12/14 01:13:55;;;;;;;17.73;11.80;;;8.30;99.90;;;;;;5044853;28;20037;-80
2021/12/14 01:16:32;;;;;;;18.85;11.75;;;8.50;99.90;;;;;;5074959;28;20044;-80
2021/12/14 01:19:13;;;;;;;18.20;15.05;;;8.20;99.90;;;;;;5031027;28;20127;-80
2021/12/14 01:22:12;;;;;;;14.82;10.32;;;8.20;99.90;;;;;;5032807;28;20044;-81
2021/12/14 01:25:12;;;;;;;15.82;11.32;;;8.40;99.90;;;;;;5083348;28;20098;-81
2021/12/14 01:27:56;;;;;;;16.45;11.77;;;8.30;99.90;;;;;;5031069;28;20044;-79
2021/12/14 01:31:01;;;;;;;19.05;12.23;;;8.30;99.90;;;;;;5047582;28;20067;-81
2021/12/14 01:33:27;;;;;;;31.83;16.50;;;8.30;99.90;;;;;;5089033;28;20060;-79
2021/12/14 01:35:55;;;;;;;19.42;12.43;;;9.60;99.90;;;;;;5083135;28;20153;-80
2021/12/14 01:40:58;;;;;;;19.80;13.18;;;8.30;99.90;;;;;;5057369;28;20041;-80
2021/12/14 01:43:39;;;;;;;17.50;12.32;;;8.30;99.90;;;;;;5049781;28;20249;-80
2021/12/14 01:46:13;;;;;;;20.20;13.43;;;8.20;99.90;;;;;;5067387;28;20029;-81
2021/12/14 01:48:40;;;;;;;19.67;13.10;;;8.20;99.90;;;;;;5048965;28;20041;-81
2021/12/14 01:51:09;;;;;;;16.95;12.32;;;8.30;99.90;;;;;;5046213;28;20120;-80
2021/12/14 01:53:38;;;;;;;19.73;13.50;;;8.30;99.90;;;;;;5048394;28;20050;-81
2021/12/14 01:56:08;;;;;;;17.27;12.90;;;8.30;99.90;;;;;;5046614;28;20059;-80
2021/12/14 01:58:47;;;;;;;20.52;13.70;;;8.30;99.90;;;;;;5033275;28;20139;-80
2021/12/14 02:01:20;;;;;;;20.40;13.70;;;8.30;99.90;;;;;;5049586;28;20040;-81
2021/12/14 02:03:58;;;;;;;21.48;13.07;;;8.30;99.90;;;;;;5031410;28;20038;-81
2021/12/14 02:06:27;;;;;;;20.50;13.82;;;8.30;99.90;;;;;;5027879;28;20060;-80
2021/12/14 02:08:57;;;;;;;20.33;13.30;;;8.30;99.90;;;;;;5028909;28;20033;-81
2021/12/14 02:11:25;;;;;;;20.13;13.68;;;8.30;99.90;;;;;;5044889;28;20083;-81
2021/12/14 02:13:53;;;;;;;19.42;13.82;;;8.30;99.90;;;;;;5016400;28;20095;-80
2021/12/14 02:16:21;;;;;;;18.58;12.77;;;8.50;99.90;;;;;;5045777;28;20492;-80
2021/12/14 02:18:50;;;;;;;18.20;13.63;;;8.30;99.90;;;;;;5030881;28;20825;-80
2021/12/14 02:21:17;;;;;;;20.27;14.50;;;8.40;99.90;;;;;;5031028;28;20068;-80
2021/12/14 02:23:47;;;;;;;21.02;14.40;;;8.60;99.90;;;;;;5046829;28;20051;-80
2021/12/14 02:26:16;;;;;;;22.20;14.85;;;8.30;99.90;;;;;;5081746;28;20130;-80
2021/12/14 02:28:42;;;;;;;23.60;15.77;;;8.30;99.90;;;;;;5064366;28;20093;-81
2021/12/14 02:31:11;;;;;;;21.23;13.85;;;8.30;99.90;;;;;;5030609;28;20041;-80
2021/12/14 02:33:39;;;;;;;19.65;14.70;;;8.40;99.90;;;;;;5038905;28;20064;-81
2021/12/14 02:36:11;;;;;;;20.83;15.13;;;8.50;99.90;;;;;;5061802;28;20044;-80
2021/12/14 02:38:42;;;;;;;24.63;14.73;;;8.30;99.90;;;;;;5030603;28;20028;-80
2021/12/14 02:41:08;;;;;;;21.23;14.57;;;8.30;99.90;;;;;;5027899;28;20046;-80
2021/12/14 02:43:42;;;;;;;22.58;14.98;;;8.40;99.90;;;;;;5061115;28;20520;-80
2021/12/14 02:46:13;;;;;;;22.33;14.85;;;8.40;99.90;;;;;;5059734;28;20101;-80
2021/12/14 02:48:43;;;;;;;25.88;15.07;;;8.30;99.90;;;;;;5030662;28;20119;-80
2021/12/14 02:51:34;;;;;;;22.20;16.65;;;8.30;99.90;;;;;;5084649;28;20082;-80
2021/12/14 02:54:11;;;;;;;23.85;14.60;;;8.30;99.90;;;;;;5052518;28;20457;-79
2021/12/14 02:56:39;;;;;;;22.17;15.45;;;8.30;99.90;;;;;;5057575;28;20045;-80
2021/12/14 02:59:28;;;;;;;22.50;15.27;;;8.40;99.90;;;;;;5047822;28;20457;-80
2021/12/14 03:01:56;;;;;;;19.90;13.75;;;8.40;99.90;;;;;;5059526;28;20431;-80
2021/12/14 03:04:22;;;;;;;19.90;14.80;;;8.30;99.90;;;;;;5082541;28;20055;-80
2021/12/14 03:06:53;;;;;;;23.67;15.32;;;8.40;99.90;;;;;;5033914;28;20033;-80
2021/12/14 03:12:18;;;;;;;22.80;15.55;;;6.90;99.90;;;;;;5045011;28;20059;-81
2021/12/14 03:14:51;;;;;;;23.17;16.48;;;8.30;99.90;;;;;;5049010;28;20063;-81
2021/12/14 03:17:17;;;;;;;23.73;15.95;;;8.50;99.90;;;;;;5066351;28;20396;-80
2021/12/14 03:19:43;;;;;;;26.50;16.50;;;8.20;99.90;;;;;;5031508;28;20037;-80
2021/12/14 03:22:33;;;;;;;23.08;16.27;;;8.20;99.90;;;;;;5035207;28;20493;-81
2021/12/14 03:24:59;;;;;;;26.45;17.30;;;8.20;99.90;;;;;;5055080;28;20041;-80
2021/12/14 03:27:26;;;;;;;21.63;16.27;;;8.10;99.90;;;;;;5070777;28;20097;-80
2021/12/14 03:29:52;;;;;;;25.98;16.65;;;8.10;99.90;;;;;;5042671;28;20131;-81
2021/12/14 03:32:18;;;;;;;27.13;18.00;;;8.50;99.90;;;;;;5051486;28;20400;-80
2021/12/14 03:34:44;;;;;;;24.40;16.30;;;7.90;99.90;;;;;;5049955;28;20158;-80
2021/12/14 03:37:20;;;;;;;26.08;17.75;;;7.90;99.90;;;;;;5068208;28;20135;-80
2021/12/14 03:39:57;;;;;;;27.73;17.75;;;7.90;99.90;;;;;;5048081;28;20118;-80
2021/12/14 03:42:36;;;;;;;27.35;18.13;;;7.90;99.90;;;;;;5032153;28;20036;-80
2021/12/14 03:45:09;;;;;;;25.40;17.38;;;8.00;99.90;;;;;;5054245;28;20032;-81
2021/12/14 03:47:43;;;;;;;25.92;17.20;;;7.90;99.90;;;;;;5051009;28;20032;-80
2021/12/14 03:50:17;;;;;;;29.48;20.20;;;8.00;99.90;;;;;;5052678;28;20037;-80
2021/12/14 03:52:44;;;;;;;24.98;18.42;;;8.20;99.90;;;;;;5057508;28;20678;-80
2021/12/14 03:55:26;;;;;;;26.85;18.63;;;8.00;99.90;;;;;;5038796;28;20036;-80
2021/12/14 03:57:53;;;;;;;30.17;19.58;;;8.00;99.90;;;;;;5047601;28;20464;-80
2021/12/14 04:00:24;;;;;;;32.08;19.70;;;8.00;99.90;;;;;;5024035;28;20045;-80
2021/12/14 04:02:52;;;;;;;;;;;8.00;99.90;;;;;;5067931;28;20064;-80
2021/12/14 04:05:18;;;;;;;29.63;20.13;;;8.00;99.90;;;;;;5061433;28;19920;-80
2021/12/14 04:07:44;;;;;;;30.48;20.70;;;8.00;99.90;;;;;;5034122;28;20119;-80
2021/12/14 04:10:29;;;;;;;33.33;21.27;;;8.00;99.90;;;;;;5052657;28;20043;-80
2021/12/14 04:12:56;;;;;;;33.10;21.05;;;8.00;99.90;;;;;;5036935;28;20511;-80
2021/12/14 04:15:22;;;;;;;30.05;20.88;;;8.00;99.90;;;;;;5037928;28;20041;-80
2021/12/14 04:17:48;;;;;;;34.38;21.55;;;8.60;99.90;;;;;;5016185;28;20369;-80
2021/12/14 04:20:37;;;;;;;34.28;22.20;;;8.00;99.90;;;;;;5048799;28;20056;-80
2021/12/14 04:23:08;;;;;;;33.20;21.42;;;8.00;99.90;;;;;;5070992;28;20519;-80
2021/12/14 04:25:35;;;;;;;36.03;22.50;;;9.10;99.90;;;;;;5046942;28;20229;-80
2021/12/14 04:28:06;;;;;;;35.95;22.13;;;8.20;99.90;;;;;;5017553;28;20079;-80
2021/12/14 04:30:33;;;;;;;35.20;22.65;;;8.10;99.90;;;;;;5035070;28;20131;-80
2021/12/14 04:33:03;;;;;;;31.13;21.08;;;8.80;99.90;;;;;;5035703;28;20032;-80
2021/12/14 04:35:33;;;;;;;35.13;20.98;;;8.00;99.90;;;;;;5059470;28;20059;-81
2021/12/14 04:38:06;;;;;;;32.80;21.80;;;8.10;99.90;;;;;;5075610;28;20044;-81
2021/12/14 04:54:22;;;;;;;31.45;21.77;;;8.10;99.90;;;;;;5040703;28;20408;-80
2021/12/14 04:56:48;;;;;;;37.28;22.58;;;8.10;99.90;;;;;;5046093;28;20044;-80
2021/12/14 04:59:27;;;;;;;32.17;22.02;;;8.10;99.90;;;;;;5078285;28;20132;-80
2021/12/14 05:02:04;;;;;;;34.25;21.50;;;8.40;99.90;;;;;;5046501;28;20041;-81
2021/12/14 05:04:32;;;;;;;32.70;21.63;;;8.10;99.90;;;;;;5053754;28;20036;-81
2021/12/14 05:07:26;;;;;;;33.13;22.00;;;8.20;99.90;;;;;;5045975;28;20068;-80
2021/12/14 05:09:51;;;;;;;36.40;23.67;;;8.40;99.90;;;;;;5045693;28;20546;-80
2021/12/14 05:12:20;;;;;;;34.83;22.27;;;8.40;99.90;;;;;;5070877;28;20052;-81
2021/12/14 05:14:47;;;;;;;32.33;21.10;;;8.10;99.90;;;;;;5053607;28;20098;-81
2021/12/14 05:17:22;;;;;;;37.40;23.67;;;8.20;99.90;;;;;;5027108;28;20052;-80
2021/12/14 05:19:50;;;;;;;35.13;22.70;;;8.10;99.90;;;;;;5075126;28;20068;-80
2021/12/14 05:22:26;;;;;;;33.10;21.73;;;8.10;99.90;;;;;;5057099;28;20496;-80
2021/12/14 05:25:00;;;;;;;33.13;22.05;;;8.10;99.90;;;;;;5065343;28;20041;-80
2021/12/14 05:27:32;;;;;;;32.60;23.17;;;8.10;99.90;;;;;;5024081;28;20049;-80
2021/12/14 05:30:04;;;;;;;32.05;21.10;;;8.10;99.90;;;;;;5048710;28;20481;-80
2021/12/14 05:32:30;;;;;;;34.88;22.08;;;8.10;99.90;;;;;;5046749;28;20041;-81
2021/12/14 05:34:55;;;;;;;35.38;23.08;;;8.80;99.90;;;;;;5029283;28;20489;-80
2021/12/14 05:37:26;;;;;;;36.05;24.10;;;8.20;99.90;;;;;;5046928;28;20041;-80
2021/12/14 05:40:02;;;;;;;31.45;20.35;;;8.30;99.90;;;;;;5019322;28;20042;-80
2021/12/14 05:45:22;;;;;;;36.28;23.35;;;8.30;99.90;;;;;;5053748;28;20045;-80
2021/12/14 05:47:54;;;;;;;37.78;23.10;;;9.60;99.90;;;;;;5009274;28;20056;-81
2021/12/14 05:50:24;;;;;;;33.63;22.70;;;8.20;99.90;;;;;;5013361;28;20037;-81
2021/12/14 05:52:50;;;;;;;35.75;22.98;;;8.10;99.90;;;;;;5024299;28;20512;-81
2021/12/14 05:55:21;;;;;;;35.85;23.45;;;8.20;99.90;;;;;;5036553;28;20061;-81
2021/12/14 05:57:47;;;;;;;36.75;23.88;;;8.10;99.90;;;;;;5059286;28;20059;-80
2021/12/14 06:00:15;;;;;;;37.15;23.23;;;8.20;99.90;;;;;;5059880;28;20136;-81
2021/12/14 06:02:41;;;;;;;34.95;23.17;;;8.10;99.90;;;;;;4984261;28;20386;-80
2021/12/14 06:05:13;;;;;;;34.38;22.98;;;8.20;99.90;;;;;;5017842;28;20060;-81
2021/12/14 06:07:39;;;;;;;35.17;23.83;;;8.60;99.90;;;;;;5020726;28;20129;-80
2021/12/14 06:10:05;;;;;;;35.47;23.13;;;8.20;99.90;;;;;;5047132;28;20036;-80
2021/12/14 06:12:34;;;;;;;36.75;23.75;;;8.20;99.90;;;;;;5008964;28;20117;-81
2021/12/14 06:15:02;;;;;;;36.00;23.85;;;8.10;99.90;;;;;;5061404;28;20039;-81
2021/12/14 06:17:32;;;;;;;37.03;25.10;;;8.10;99.90;;;;;;5028043;28;20107;-80
2021/12/14 06:20:03;;;;;;;37.70;24.65;;;8.60;99.90;;;;;;5019881;28;20091;-80
2021/12/14 06:22:29;;;;;;;36.20;24.17;;;8.10;99.90;;;;;;5010757;28;20048;-80
2021/12/14 06:25:03;;;;;;;40.13;25.05;;;8.10;99.90;;;;;;5013341;28;20096;-80
2021/12/14 06:27:30;;;;;;;39.35;26.42;;;8.10;99.90;;;;;;5057754;28;20049;-80
2021/12/14 06:30:00;;;;;;;46.00;26.85;;;8.10;99.90;;;;;;5007927;28;20045;-77
2021/12/14 06:32:44;;;;;;;38.83;26.08;;;8.10;99.90;;;;;;5025628;28;20048;-81
2021/12/14 06:35:29;;;;;;;40.10;25.70;;;8.00;99.90;;;;;;5029561;28;20338;-81
2021/12/14 06:38:29;;;;;;;37.97;25.48;;;8.10;99.90;;;;;;5046136;28;20622;-80
2021/12/14 06:41:04;;;;;;;45.83;29.95;;;8.00;99.90;;;;;;5047177;28;20383;-81
2021/12/14 06:43:55;;;;;;;41.20;27.02;;;8.00;99.90;;;;;;5023142;28;20053;-81
2021/12/14 06:46:28;;;;;;;42.38;27.25;;;8.00;99.90;;;;;;5040744;28;20424;-80
2021/12/14 06:49:03;;;;;;;44.75;28.65;;;8.00;99.90;;;;;;5057550;28;20033;-80
2021/12/14 06:51:32;;;;;;;47.10;28.90;;;8.00;99.90;;;;;;5028712;28;20060;-80
2021/12/14 06:54:02;;;;;;;48.60;30.50;;;8.00;99.90;;;;;;5063115;28;20431;-81
2021/12/14 06:56:31;;;;;;;47.05;29.88;;;8.10;99.90;;;;;;5027554;28;20164;-80
2021/12/14 06:59:23;;;;;;;46.42;29.52;;;8.10;99.90;;;;;;5067224;28;20060;-80
2021/12/14 07:01:57;;;;;;;44.97;27.42;;;8.10;99.90;;;;;;5041527;28;20041;-81
2021/12/14 07:04:36;;;;;;;43.63;28.15;;;8.10;99.90;;;;;;5029698;28;20047;-80
2021/12/14 07:07:05;;;;;;;42.05;28.00;;;8.10;99.90;;;;;;5014607;28;20041;-81
2021/12/14 07:09:38;;;;;;;41.95;28.15;;;8.10;99.90;;;;;;5020767;28;20049;-80
2021/12/14 07:12:14;;;;;;;47.72;28.58;;;8.10;99.90;;;;;;5032687;28;20039;-80
2021/12/14 07:14:58;;;;;;;46.03;29.50;;;8.10;99.90;;;;;;5057282;28;20075;-81
2021/12/14 07:17:28;;;;;;;47.42;30.23;;;8.20;99.90;;;;;;5050180;28;20347;-80
2021/12/14 07:20:15;;;;;;;48.83;31.58;;;8.10;99.90;;;;;;5010064;28;20124;-79
2021/12/14 07:22:54;;;;;;;50.97;30.10;;;8.00;99.90;;;;;;5060278;28;20046;-80
2021/12/14 07:25:30;;;;;;;52.80;31.13;;;8.00;99.90;;;;;;5017469;28;20034;-80
2021/12/14 07:27:58;;;;;;;54.45;32.83;;;8.00;99.90;;;;;;5028174;28;20124;-80
2021/12/14 07:30:28;;;;;;;55.00;32.22;;;8.00;99.90;;;;;;5051676;28;20033;-78
2021/12/14 07:33:08;;;;;;;55.25;31.13;;;7.90;99.90;;;;;;5029405;28;20037;-79
2021/12/14 07:35:53;;;;;;;60.17;32.92;;;8.00;99.90;;;;;;5031613;28;20120;-79
2021/12/14 07:38:24;;;;;;;61.47;34.58;;;8.00;99.90;;;;;;5031481;28;20041;-79
2021/12/14 07:40:52;;;;;;;;;;;8.00;99.90;;;;;;5015076;28;20115;-80
2021/12/14 07:43:24;;;;;;;56.88;31.90;;;8.00;99.90;;;;;;5016213;28;19920;-80
2021/12/14 07:45:52;;;;;;;58.70;34.58;;;8.00;99.90;;;;;;5032254;28;20040;-80
2021/12/14 07:48:20;;;;;;;55.65;32.70;;;8.00;99.90;;;;;;5013787;28;20119;-80
2021/12/14 07:50:51;;;;;;;59.83;35.70;;;8.00;99.90;;;;;;5029272;28;20093;-80
2021/12/14 07:53:28;;;;;;;;;;;8.00;99.90;;;;;;5016811;28;20155;-80
2021/12/14 07:55:54;;;;;;;57.50;34.00;;;7.90;99.90;;;;;;5029138;28;19924;-81
2021/12/14 07:58:48;;;;;;;66.13;37.03;;;8.00;99.90;;;;;;5018093;28;20056;-80
2021/12/14 08:01:14;;;;;;;64.85;37.85;;;8.00;99.90;;;;;;5030354;28;20041;-81
2021/12/14 08:03:40;;;;;;;62.53;35.95;;;8.00;99.90;;;;;;5060434;28;20060;-80
2021/12/14 08:06:11;;;;;;;70.35;39.67;;;8.30;99.90;;;;;;5030730;28;20040;-80
2021/12/14 08:11:46;;;;;;;64.78;37.38;;;8.00;99.90;;;;;;5032273;28;20515;-80
2021/12/14 08:14:24;;;;;;;66.70;38.30;;;8.00;99.90;;;;;;5065863;28;20119;-80
2021/12/14 08:17:09;;;;;;;66.40;37.10;;;8.70;99.90;;;;;;5045928;28;20037;-80
2021/12/14 08:19:42;;;;;;;72.60;40.50;;;8.00;99.90;;;;;;5063641;28;20107;-81
2021/12/14 08:22:39;;;;;;;68.15;38.83;;;8.00;99.90;;;;;;5015972;28;20069;-78
2021/12/14 08:25:10;;;;;;;66.82;37.33;;;8.10;99.90;;;;;;5027457;28;20040;-80
2021/12/14 08:27:36;;;;;;;59.72;34.40;;;8.00;99.90;;;;;;5015691;28;20032;-81
2021/12/14 08:30:11;;;;;;;62.47;35.28;;;8.10;99.90;;;;;;5029631;28;20060;-81
2021/12/14 08:32:40;;;;;;;66.07;37.97;;;8.10;99.90;;;;;;5019508;28;20041;-81
2021/12/14 08:35:09;;;;;;;59.40;35.10;;;8.10;99.90;;;;;;5009365;28;20037;-81
2021/12/14 08:37:39;;;;;;;67.75;38.95;;;8.10;99.90;;;;;;5021173;28;20040;-81
2021/12/14 08:40:10;;;;;;;62.90;34.50;;;8.20;99.90;;;;;;5046498;28;20152;-81
2021/12/14 08:43:09;;;;;;;61.75;36.88;;;8.20;99.90;;;;;;5032621;28;20067;-80
2021/12/14 08:45:48;;;;;;;61.92;35.45;;;8.20;99.90;;;;;;5066988;28;20071;-81
2021/12/14 08:48:36;;;;;;;62.70;37.55;;;8.20;99.90;;;;;;5033940;28;20067;-80
2021/12/14 08:51:14;;;;;;;58.25;36.42;;;8.30;99.90;;;;;;5012750;28;20053;-80
2021/12/14 08:53:48;;;;;;;67.88;38.08;;;8.30;99.90;;;;;;5060460;28;20124;-81
2021/12/14 08:56:16;;;;;;;66.45;36.30;;;8.30;99.90;;;;;;5018731;28;20039;-80
2021/12/14 08:58:43;;;;;;;64.72;36.88;;;8.30;99.90;;;;;;5028012;28;20100;-80
2021/12/14 09:01:20;;;;;;;66.80;35.55;;;9.20;99.90;;;;;;5030348;28;20045;-80
2021/12/14 09:04:01;;;;;;;70.28;38.13;;;8.30;99.90;;;;;;5047162;28;20047;-81
2021/12/14 09:06:31;;;;;;;65.32;37.70;;;8.30;99.90;;;;;;5040774;28;20033;-80
2021/12/14 09:09:02;;;;;;;64.95;37.20;;;8.30;99.90;;;;;;5031618;28;20029;-80
2021/12/14 09:11:36;;;;;;;58.92;34.75;;;8.30;99.90;;;;;;5030341;28;20087;-80
2021/12/14 09:14:04;;;;;;;56.83;35.28;;;8.40;99.90;;;;;;5024127;28;20044;-80
2021/12/14 09:16:32;;;;;;;60.38;36.70;;;8.40;99.90;;;;;;5029466;28;20390;-81
2021/12/14 09:19:04;;;;;;;68.70;37.83;;;8.40;99.90;;;;;;5065030;28;20543;-80
2021/12/14 09:21:34;;;;;;;63.08;36.55;;;8.40;99.90;;;;;;5033353;28;20578;-80
2021/12/14 09:24:05;;;;;;;67.07;38.17;;;8.40;99.90;;;;;;5009989;28;20044;-80
2021/12/14 09:26:34;;;;;;;63.33;36.25;;;8.40;99.90;;;;;;5015239;28;20048;-79
2021/12/14 09:29:00;;;;;;;60.30;37.83;;;8.40;99.90;;;;;;5015444;28;20496;-81
2021/12/14 09:31:32;;;;;;;59.53;37.05;;;8.50;99.90;;;;;;5040539;28;20095;-80
2021/12/14 09:33:59;;;;;;;57.13;35.55;;;8.40;99.90;;;;;;5011737;28;20037;-80
2021/12/14 09:36:29;;;;;;;54.75;35.00;;;8.50;99.90;;;;;;5029245;28;20048;-80
2021/12/14 09:38:59;;;;;;;53.40;32.35;;;8.50;99.90;;;;;;5031218;28;20385;-80
2021/12/14 09:41:31;;;;;;;52.72;34.28;;;8.60;99.90;;;;;;5045736;28;20037;-80
2021/12/14 09:43:58;;;;;;;58.28;34.95;;;8.50;99.90;;;;;;5025321;28;20037;-80
2021/12/14 09:46:24;;;;;;;59.10;36.88;;;8.60;99.90;;;;;;5044468;28;20045;-80
2021/12/14 09:48:56;;;;;;;57.60;36.30;;;8.60;99.90;;;;;;5022752;28;20041;-80
2021/12/14 09:51:36;;;;;;;57.95;35.75;;;8.90;99.90;;;;;;5029821;28;20123;-80
2021/12/14 09:54:06;;;;;;;54.58;34.60;;;8.60;99.90;;;;;;5030132;28;20260;-81
2021/12/14 09:56:38;;;;;;;56.97;35.22;;;8.60;99.90;;;;;;5033533;28;20044;-80
2021/12/14 09:59:07;;;;;;;56.47;34.25;;;8.70;99.90;;;;;;5021479;28;20057;-80
2021/12/14 10:01:45;;;;;;;60.67;35.72;;;8.70;99.90;;;;;;5009030;28;20481;-80
2021/12/14 10:04:16;;;;;;;55.10;34.95;;;8.70;99.90;;;;;;5028587;28;20135;-80
2021/12/14 10:06:42;;;;;;;60.47;36.80;;;8.70;99.90;;;;;;5012792;28;20041;-80
2021/12/14 10:09:13;;;;;;;68.38;39.88;;;8.70;99.90;;;;;;5025511;28;20041;-80
2021/12/14 10:14:40;;;;;;;54.97;32.85;;;8.70;99.90;;;;;;5003473;28;20040;-80
2021/12/14 10:17:11;;;;;;;59.05;35.50;;;8.70;99.90;;;;;;5027168;28;20045;-80
2021/12/14 10:19:36;;;;;;;53.60;31.73;;;8.70;99.90;;;;;;5018491;28;20516;-80
2021/12/14 10:22:17;;;;;;;60.97;38.03;;;8.70;99.90;;;;;;4995515;28;20073;-80
2021/12/14 10:24:43;;;;;;;55.97;36.53;;;8.70;99.90;;;;;;5042851;28;20248;-80
2021/12/14 10:27:16;;;;;;;61.08;37.22;;;8.60;99.90;;;;;;5019103;28;20064;-80
2021/12/14 10:29:43;;;;;;;66.65;38.85;;;8.70;99.90;;;;;;5033507;28;20044;-80
2021/12/14 10:32:14;;;;;;;61.55;35.65;;;9.70;99.90;;;;;;5061569;28;20489;-80
2021/12/14 10:34:45;;;;;;;59.83;37.38;;;9.50;99.90;;;;;;5035072;28;20463;-80
2021/12/14 10:37:19;;;;;;;;;;;8.60;99.90;;;;;;5052490;28;20053;-80
2021/12/14 10:42:51;;;;;;;60.67;34.72;;;8.60;99.90;;;;;;5061749;28;20053;-78
2021/12/14 10:45:17;;;;;;;67.30;35.47;;;8.60;99.90;;;;;;5026361;28;20507;-78
2021/12/14 10:47:44;;;;;;;58.53;35.30;;;8.60;99.90;;;;;;5016371;28;20120;-78
2021/12/14 10:50:14;;;;;;;63.05;36.40;;;8.70;99.90;;;;;;5018177;28;20037;-78
2021/12/14 10:52:43;;;;;;;58.47;36.00;;;8.70;99.90;;;;;;5014765;28;20047;-78
2021/12/14 10:55:17;;;;;;;61.45;35.42;;;8.70;99.90;;;;;;5040515;28;20045;-81
2021/12/14 10:57:44;;;;;;;55.25;33.28;;;8.80;99.90;;;;;;5018254;28;20057;-78
2021/12/14 11:00:36;;;;;;;57.97;34.38;;;8.80;99.90;;;;;;5030998;28;20048;-78
2021/12/14 11:03:05;;;;;;;;;;;8.80;99.90;;;;;;4979565;28;20086;-82
2021/12/14 11:05:32;;;;;;;50.97;31.63;;;8.80;99.90;;;;;;5025398;28;19940;-81
2021/12/14 11:07:59;;;;;;;58.22;31.02;;;8.80;99.90;;;;;;5009925;28;20044;-81
2021/12/14 11:10:30;;;;;;;59.53;35.17;;;8.80;99.90;;;;;;5047874;28;20061;-81
2021/12/14 11:13:00;;;;;;;;;;;8.80;99.90;;;;;;5062763;28;20549;-81
2021/12/14 11:15:43;;;;;;;48.37;29.10;;;8.80;99.90;;;;;;5033477;28;19952;-81
2021/12/14 11:18:20;;;;;;;49.50;29.77;;;8.70;99.90;;;;;;5008923;28;20123;-81
2021/12/14 11:21:14;;;;;;;53.03;31.90;;;8.70;99.90;;;;;;4999959;28;20033;-82
2021/12/14 11:23:44;;;;;;;47.13;28.85;;;8.80;99.90;;;;;;5017015;28;20052;-81
2021/12/14 11:26:44;;;;;;;54.65;30.33;;;8.70;99.90;;;;;;5032777;28;20053;-82
2021/12/14 11:29:14;;;;;;;49.88;29.55;;;8.80;99.90;;;;;;5021412;28;20045;-83
2021/12/14 11:31:54;;;;;;;48.00;28.90;;;8.80;99.90;;;;;;5027776;28;20448;-81
2021/12/14 11:34:31;;;;;;;51.53;28.13;;;8.70;99.90;;;;;;5015770;28;20291;-82
2021/12/14 11:37:04;;;;;;;47.10;29.05;;;8.70;99.90;;;;;;5013395;28;20332;-81
2021/12/14 11:39:38;;;;;;;52.97;30.88;;;8.80;99.90;;;;;;5010015;28;20044;-82
2021/12/14 11:42:10;;;;;;;52.33;29.10;;;8.80;99.90;;;;;;5014756;28;20484;-80
2021/12/14 11:45:04;;;;;;;47.90;29.20;;;8.80;99.90;;;;;;5034607;28;20037;-80
2021/12/14 11:47:42;;;;;;;55.88;31.73;;;8.80;99.90;;;;;;5016718;28;20072;-81
2021/12/14 11:50:27;;;;;;;46.92;26.50;;;8.80;99.90;;;;;;5013575;28;20239;-81
2021/12/14 11:52:59;;;;;;;47.17;28.77;;;8.80;99.90;;;;;;5032473;28;20047;-81
2021/12/14 11:55:38;;;;;;;49.45;28.13;;;8.80;99.90;;;;;;5029917;28;20045;-81
2021/12/14 11:58:12;;;;;;;47.38;27.92;;;8.80;99.90;;;;;;5057084;28;20053;-77
2021/12/14 12:01:00;;;;;;;43.55;26.05;;;8.80;99.90;;;;;;5040124;28;20037;-80
2021/12/14 12:03:29;;;;;;;43.60;23.10;;;8.90;99.90;;;;;;5063733;28;20112;-80
2021/12/14 12:09:29;;;;;;;48.88;27.23;;;8.80;99.90;;;;;;5036521;28;20037;-81
2021/12/14 12:12:04;;;;;;;48.05;28.77;;;8.80;99.90;;;;;;5026627;28;20040;-82
2021/12/14 12:14:47;;;;;;;55.30;31.17;;;8.80;99.90;;;;;;5024692;28;20056;-81
2021/12/14 12:17:21;;;;;;;52.05;29.02;;;8.80;99.90;;;;;;5012479;28;20063;-81
2021/12/14 12:20:00;;;;;;;48.35;28.52;;;8.90;99.90;;;;;;5033738;28;20401;-81
2021/12/14 12:22:32;;;;;;;49.25;28.08;;;8.80;99.90;;;;;;5033479;28;20045;-80
2021/12/14 12:24:58;;;;;;;48.80;29.23;;;8.80;99.90;;;;;;5008912;28;20040;-80
2021/12/14 12:27:41;;;;;;;56.03;29.63;;;8.80;99.90;;;;;;5022054;28;20116;-80
2021/12/14 12:30:36;;;;;;;52.00;27.40;;;8.80;99.90;;;;;;5023144;28;20401;-80
2021/12/14 12:33:32;;;;;;;56.60;30.15;;;8.90;99.90;;;;;;5041121;28;20042;-81
2021/12/14 12:36:10;;;;;;;48.20;26.55;;;8.80;99.90;;;;;;5011783;28;20045;-81
2021/12/14 12:38:39;;;;;;;48.10;28.23;;;8.80;99.90;;;;;;5040663;28;20485;-81
2021/12/14 12:41:11;;;;;;;51.83;27.00;;;8.80;99.90;;;;;;5070628;28;20037;-80
2021/12/14 12:43:50;;;;;;;50.45;27.65;;;8.90;99.90;;;;;;5033710;28;20033;-80
2021/12/14 12:46:30;;;;;;;51.20;27.30;;;8.80;99.90;;;;;;5026094;28;20038;-80
2021/12/14 12:49:09;;;;;;;58.00;28.30;;;9.10;99.90;;;;;;5064158;28;20525;-81
2021/12/14 12:51:55;;;;;;;46.65;25.45;;;8.90;99.90;;;;;;5081141;28;20060;-80
2021/12/14 12:54:39;;;;;;;56.20;27.55;;;8.90;99.90;;;;;;5027644;28;20107;-80
2021/12/14 12:57:08;;;;;;;46.33;25.00;;;8.90;99.90;;;;;;5045493;28;20096;-81
2021/12/14 12:59:37;;;;;;;48.55;25.13;;;8.90;99.90;;;;;;5033237;28;20063;-80
2021/12/14 13:02:20;;;;;;;47.90;25.65;;;8.90;99.90;;;;;;5038318;28;20044;-80
2021/12/14 13:04:49;;;;;;;52.80;26.27;;;8.90;99.90;;;;;;5043762;28;20043;-80
2021/12/14 13:07:16;;;;;;;51.60;26.13;;;8.90;99.90;;;;;;5078479;28;20036;-78
2021/12/14 13:10:04;;;;;;;57.40;25.27;;;9.00;99.90;;;;;;5081731;28;20040;-78
2021/12/14 13:12:36;;;;;;;49.83;25.63;;;9.00;99.90;;;;;;5060582;28;20036;-78
2021/12/14 13:15:03;;;;;;;53.30;28.20;;;9.00;99.90;;;;;;5060391;28;20098;-78
2021/12/14 13:17:29;;;;;;;54.33;26.58;;;9.00;99.90;;;;;;5056660;28;20105;-79
2021/12/14 13:20:01;;;;;;;49.75;25.80;;;9.00;99.90;;;;;;5072368;28;20130;-76
2021/12/14 13:22:27;;;;;;;56.28;26.60;;;9.00;99.90;;;;;;5012635;28;20119;-75
2021/12/14 13:24:53;;;;;;;49.40;24.70;;;9.00;99.90;;;;;;5043092;28;20123;-78
2021/12/14 13:27:21;;;;;;;50.63;25.88;;;9.00;99.90;;;;;;5031225;28;20071;-78
2021/12/14 13:29:59;;;;;;;52.40;27.40;;;9.00;99.90;;;;;;5066204;28;20040;-78
2021/12/14 13:32:26;;;;;;;52.38;26.73;;;9.10;99.90;;;;;;5081898;28;20508;-78
2021/12/14 13:35:00;;;;;;;53.03;26.73;;;9.00;99.90;;;;;;5080416;28;20044;-78
2021/12/14 13:37:48;;;;;;;47.65;24.52;;;9.00;99.90;;;;;;5028901;28;20044;-78
2021/12/14 13:40:24;;;;;;;51.08;26.00;;;9.10;99.90;;;;;;5053176;28;20052;-78
2021/12/14 13:42:58;;;;;;;43.17;24.20;;;9.00;99.90;;;;;;5030854;28;20045;-78
2021/12/14 13:45:27;;;;;;;52.78;26.77;;;9.10;99.90;;;;;;5077052;28;20036;-78
2021/12/14 13:47:54;;;;;;;48.53;24.67;;;9.10;99.90;;;;;;5038575;28;20500;-78